7QYKW FWCL-FZQA
Flight info
| Callsign | 7QYKW |
|---|---|
| Flight time | 1h 22m |
| Altitude | 36000 |
| Route | VMF UT281 BESHO BESHO1C |
| Aircraft | B735/M-SABDE2E3FHIRW/SB2 |
Departure
| Time | 2026-05-04 08:57 |
|---|---|
| Airport | Chileka International Airport (FWCL) |
Arrival
| Time | 2026-05-04 10:19 |
|---|---|
| Airport | Lubumbashi International Airport (FZQA) |
| Time | Latitude | Longitude | Altitude | Speed | Heading |
|---|---|---|---|---|---|
| 2026-05-04 08:25 | -15.68098 | 34.97177 | 2467 ft | 0 kts | 275° |
| 2026-05-04 08:48 | -15.68098 | 34.97173 | 2467 ft | 1 kts | 278° |
| 2026-05-04 08:51 | -15.68098 | 34.97172 | 2467 ft | 2 kts | 278° |
| 2026-05-04 08:51 | -15.68097 | 34.97165 | 2467 ft | 0 kts | 279° |
| 2026-05-04 08:54 | -15.68086 | 34.97463 | 2466 ft | 11 kts | 97° |
| 2026-05-04 08:55 | -15.68083 | 34.97532 | 2465 ft | 5 kts | 58° |
| 2026-05-04 08:55 | -15.68072 | 34.97535 | 2469 ft | 5 kts | 5° |
| 2026-05-04 08:55 | -15.68045 | 34.97520 | 2465 ft | 1 kts | 321° |
| 2026-05-04 08:55 | -15.68037 | 34.97514 | 2470 ft | 6 kts | 321° |
| 2026-05-04 08:57 | -15.65028 | 34.93531 | 4611 ft | 185 kts | 294° |
| 2026-05-04 09:01 | -15.49239 | 34.70484 | 15488 ft | 321 kts | 315° |
| 2026-05-04 09:01 | -15.47738 | 34.68750 | 16382 ft | 324 kts | 315° |
| 2026-05-04 09:01 | -15.46223 | 34.67002 | 17274 ft | 328 kts | 315° |
| 2026-05-04 09:01 | -15.44694 | 34.65240 | 18166 ft | 331 kts | 316° |
| 2026-05-04 09:02 | -15.43138 | 34.63447 | 18958 ft | 336 kts | 315° |
| 2026-05-04 09:02 | -15.41565 | 34.61637 | 19737 ft | 339 kts | 315° |
| 2026-05-04 09:02 | -15.39981 | 34.59817 | 20545 ft | 342 kts | 315° |
| 2026-05-04 09:02 | -15.38393 | 34.57997 | 21312 ft | 346 kts | 315° |
| 2026-05-04 09:03 | -15.36772 | 34.56140 | 22080 ft | 350 kts | 314° |
| 2026-05-04 09:03 | -15.35125 | 34.54259 | 22872 ft | 353 kts | 314° |
| 2026-05-04 09:03 | -15.33470 | 34.52372 | 23653 ft | 357 kts | 314° |
| 2026-05-04 09:03 | -15.31789 | 34.50460 | 24309 ft | 361 kts | 314° |
| 2026-05-04 09:04 | -15.30086 | 34.48525 | 24979 ft | 364 kts | 314° |
| 2026-05-04 09:04 | -15.28376 | 34.46588 | 25675 ft | 366 kts | 314° |
| 2026-05-04 09:04 | -15.26650 | 34.44635 | 26361 ft | 369 kts | 314° |
| 2026-05-04 09:04 | -15.24897 | 34.42657 | 27011 ft | 373 kts | 314° |
| 2026-05-04 09:05 | -15.23053 | 34.40820 | 27634 ft | 375 kts | 321° |
| 2026-05-04 09:05 | -15.21015 | 34.39112 | 28299 ft | 378 kts | 322° |
| 2026-05-04 09:05 | -15.18959 | 34.37374 | 28951 ft | 382 kts | 321° |
| 2026-05-04 09:05 | -15.16964 | 34.35545 | 29579 ft | 386 kts | 319° |
| 2026-05-04 09:06 | -15.15024 | 34.33602 | 30203 ft | 390 kts | 316° |
| 2026-05-04 09:07 | -15.01444 | 34.19112 | 33646 ft | 413 kts | 314° |
| 2026-05-04 09:08 | -14.99419 | 34.16963 | 34087 ft | 416 kts | 314° |
| 2026-05-04 09:08 | -14.97391 | 34.14819 | 34464 ft | 419 kts | 314° |
| 2026-05-04 09:08 | -14.95342 | 34.12653 | 34819 ft | 422 kts | 314° |
| 2026-05-04 09:08 | -14.93276 | 34.10477 | 35170 ft | 424 kts | 314° |
| 2026-05-04 09:09 | -14.91207 | 34.08299 | 35503 ft | 427 kts | 315° |
| 2026-05-04 09:09 | -14.89251 | 34.05992 | 35775 ft | 429 kts | 302° |
| 2026-05-04 09:09 | -14.87968 | 34.03195 | 36086 ft | 431 kts | 290° |
| 2026-05-04 09:09 | -14.86916 | 34.00285 | 36192 ft | 435 kts | 292° |
| 2026-05-04 09:10 | -14.85650 | 33.97458 | 36208 ft | 431 kts | 298° |
| 2026-05-04 09:10 | -14.82274 | 33.92417 | 36212 ft | 423 kts | 309° |
| 2026-05-04 09:11 | -14.78514 | 33.87785 | 36191 ft | 424 kts | 300° |
| 2026-05-04 09:11 | -14.77364 | 33.84991 | 36234 ft | 422 kts | 286° |
| 2026-05-04 09:11 | -14.76561 | 33.82072 | 36211 ft | 427 kts | 288° |
| 2026-05-04 09:12 | -14.73944 | 33.76512 | 36231 ft | 435 kts | 303° |
| 2026-05-04 09:14 | -14.58526 | 33.57067 | 36198 ft | 437 kts | 310° |
| 2026-05-04 09:14 | -14.55169 | 33.53174 | 36201 ft | 436 kts | 311° |
| 2026-05-04 09:15 | -14.50477 | 33.47734 | 36199 ft | 435 kts | 311° |
| 2026-05-04 09:15 | -14.47090 | 33.43831 | 36204 ft | 435 kts | 311° |
| 2026-05-04 09:17 | -14.28801 | 33.22945 | 36186 ft | 439 kts | 311° |
| 2026-05-04 09:18 | -14.24680 | 33.18301 | 36191 ft | 439 kts | 311° |
| 2026-05-04 09:18 | -14.20546 | 33.13639 | 36181 ft | 440 kts | 311° |
| 2026-05-04 09:19 | -14.16428 | 33.08997 | 36191 ft | 441 kts | 311° |
| 2026-05-04 09:19 | -14.12288 | 33.04336 | 36188 ft | 441 kts | 310° |
| 2026-05-04 09:20 | -14.08756 | 32.99184 | 36188 ft | 439 kts | 302° |
| 2026-05-04 09:20 | -14.05344 | 32.93959 | 36177 ft | 440 kts | 304° |
| 2026-05-04 09:21 | -14.01712 | 32.88894 | 36177 ft | 440 kts | 306° |
| 2026-05-04 09:21 | -13.98008 | 32.83926 | 36172 ft | 440 kts | 307° |
| 2026-05-04 09:22 | -13.94265 | 32.78941 | 36178 ft | 439 kts | 307° |
| 2026-05-04 09:22 | -13.90515 | 32.73959 | 36175 ft | 439 kts | 307° |
| 2026-05-04 09:23 | -13.86779 | 32.69013 | 36166 ft | 438 kts | 307° |
| 2026-05-04 09:23 | -13.83048 | 32.64091 | 36172 ft | 438 kts | 307° |
| 2026-05-04 09:25 | -13.67989 | 32.44414 | 36150 ft | 438 kts | 307° |
| 2026-05-04 09:26 | -13.64201 | 32.39512 | 36135 ft | 438 kts | 307° |
| 2026-05-04 09:26 | -13.60406 | 32.34617 | 36126 ft | 438 kts | 308° |
| 2026-05-04 09:27 | -13.56601 | 32.29731 | 36130 ft | 438 kts | 308° |
| 2026-05-04 09:27 | -13.52901 | 32.24997 | 36117 ft | 438 kts | 308° |
| 2026-05-04 09:28 | -13.49090 | 32.20140 | 36122 ft | 438 kts | 308° |
| 2026-05-04 09:28 | -13.45250 | 32.15263 | 36101 ft | 439 kts | 308° |
| 2026-05-04 09:29 | -13.41399 | 32.10392 | 36103 ft | 439 kts | 308° |
| 2026-05-04 09:29 | -13.37540 | 32.05533 | 36095 ft | 439 kts | 308° |
| 2026-05-04 09:30 | -13.33661 | 32.00666 | 36102 ft | 439 kts | 308° |
| 2026-05-04 09:30 | -13.29784 | 31.95824 | 36093 ft | 440 kts | 309° |
| 2026-05-04 09:31 | -13.25905 | 31.90988 | 36095 ft | 440 kts | 308° |
| 2026-05-04 09:31 | -13.21997 | 31.86163 | 36076 ft | 440 kts | 309° |
| 2026-05-04 09:32 | -13.18107 | 31.81314 | 36083 ft | 441 kts | 309° |
| 2026-05-04 09:34 | -13.04597 | 31.64191 | 36071 ft | 440 kts | 296° |
| 2026-05-04 09:34 | -13.03559 | 31.61301 | 36082 ft | 440 kts | 283° |
| 2026-05-04 09:34 | -13.02886 | 31.55008 | 36101 ft | 446 kts | 274° |
| 2026-05-04 09:35 | -13.02498 | 31.48634 | 36089 ft | 448 kts | 274° |
| 2026-05-04 09:35 | -13.02071 | 31.42265 | 36089 ft | 447 kts | 274° |
| 2026-05-04 09:37 | -13.00281 | 31.17080 | 36107 ft | 439 kts | 275° |
| 2026-05-04 09:38 | -12.99833 | 31.10825 | 36116 ft | 439 kts | 275° |
| 2026-05-04 09:38 | -12.99383 | 31.04575 | 36130 ft | 443 kts | 275° |
| 2026-05-04 09:39 | -12.98927 | 30.98259 | 36120 ft | 448 kts | 275° |
| 2026-05-04 09:39 | -12.98466 | 30.91887 | 36126 ft | 450 kts | 275° |
| 2026-05-04 09:40 | -12.98001 | 30.85476 | 36104 ft | 449 kts | 275° |
| 2026-05-04 09:40 | -12.97536 | 30.79100 | 36123 ft | 446 kts | 275° |
| 2026-05-04 09:42 | -12.95697 | 30.54031 | 36109 ft | 445 kts | 275° |
| 2026-05-04 09:43 | -12.95228 | 30.47691 | 36091 ft | 448 kts | 275° |
| 2026-05-04 09:43 | -12.94757 | 30.41315 | 36082 ft | 450 kts | 275° |
| 2026-05-04 09:44 | -12.94242 | 30.34889 | 36085 ft | 451 kts | 278° |
| 2026-05-04 09:46 | -12.85911 | 30.11131 | 36065 ft | 441 kts | 291° |
| 2026-05-04 09:46 | -12.83719 | 30.05237 | 36071 ft | 441 kts | 291° |
| 2026-05-04 09:47 | -12.81533 | 29.99355 | 36067 ft | 442 kts | 291° |
| 2026-05-04 09:49 | -12.72761 | 29.75807 | 36069 ft | 444 kts | 292° |
| 2026-05-04 09:51 | -12.65030 | 29.55111 | 36063 ft | 445 kts | 292° |
| 2026-05-04 09:51 | -12.62809 | 29.49178 | 36059 ft | 446 kts | 292° |
| 2026-05-04 09:52 | -12.60592 | 29.43256 | 36061 ft | 446 kts | 292° |
| 2026-05-04 09:52 | -12.58371 | 29.37328 | 36058 ft | 446 kts | 292° |
| 2026-05-04 09:53 | -12.56151 | 29.31408 | 36059 ft | 445 kts | 292° |
| 2026-05-04 09:53 | -12.53930 | 29.25487 | 36058 ft | 445 kts | 292° |
| 2026-05-04 09:54 | -12.51726 | 29.19613 | 36060 ft | 444 kts | 292° |
| 2026-05-04 09:54 | -12.49507 | 29.13706 | 36055 ft | 444 kts | 292° |
| 2026-05-04 09:55 | -12.47215 | 29.07838 | 36057 ft | 444 kts | 294° |
| 2026-05-04 09:55 | -12.44824 | 29.02014 | 36056 ft | 444 kts | 294° |
| 2026-05-04 09:56 | -12.42446 | 28.96201 | 36056 ft | 443 kts | 294° |
| 2026-05-04 09:56 | -12.40079 | 28.90370 | 36048 ft | 442 kts | 294° |
| 2026-05-04 09:57 | -12.37773 | 28.84680 | 36039 ft | 429 kts | 294° |
| 2026-05-04 09:57 | -12.35479 | 28.79020 | 35699 ft | 429 kts | 294° |
| 2026-05-04 09:57 | -12.34333 | 28.76202 | 35113 ft | 429 kts | 293° |
| 2026-05-04 09:58 | -12.33201 | 28.73407 | 34443 ft | 430 kts | 292° |
| 2026-05-04 09:58 | -12.32104 | 28.70546 | 33592 ft | 434 kts | 291° |
| 2026-05-04 09:58 | -12.31041 | 28.67648 | 32848 ft | 435 kts | 291° |
| 2026-05-04 10:00 | -12.23875 | 28.47951 | 29054 ft | 411 kts | 291° |
| 2026-05-04 10:00 | -12.22878 | 28.45237 | 28514 ft | 406 kts | 291° |
| 2026-05-04 10:02 | -12.16153 | 28.26954 | 25026 ft | 382 kts | 291° |
| 2026-05-04 10:04 | -12.10032 | 28.10341 | 21735 ft | 365 kts | 292° |
| 2026-05-04 10:04 | -12.09143 | 28.07933 | 21262 ft | 362 kts | 292° |
| 2026-05-04 10:04 | -12.08256 | 28.05526 | 20718 ft | 360 kts | 292° |
| 2026-05-04 10:04 | -12.07375 | 28.03142 | 20251 ft | 357 kts | 292° |
| 2026-05-04 10:05 | -12.06826 | 28.01651 | 19967 ft | 356 kts | 292° |
| 2026-05-04 10:05 | -12.05951 | 27.99282 | 19496 ft | 355 kts | 293° |
| 2026-05-04 10:05 | -12.05079 | 27.96920 | 19016 ft | 354 kts | 293° |
| 2026-05-04 10:05 | -12.04213 | 27.94574 | 18559 ft | 353 kts | 293° |
| 2026-05-04 10:06 | -12.03356 | 27.92256 | 18078 ft | 352 kts | 293° |
| 2026-05-04 10:06 | -12.02494 | 27.89919 | 17579 ft | 350 kts | 294° |
| 2026-05-04 10:06 | -12.01637 | 27.87601 | 17111 ft | 348 kts | 293° |
| 2026-05-04 10:08 | -11.95293 | 27.74716 | 14293 ft | 324 kts | 304° |
| 2026-05-04 10:08 | -11.94149 | 27.72752 | 13872 ft | 317 kts | 304° |
| 2026-05-04 10:08 | -11.93052 | 27.70846 | 13455 ft | 310 kts | 303° |
| 2026-05-04 10:08 | -11.91979 | 27.68971 | 13043 ft | 303 kts | 303° |
| 2026-05-04 10:09 | -11.90933 | 27.67131 | 12655 ft | 296 kts | 303° |
| 2026-05-04 10:09 | -11.89908 | 27.65327 | 12288 ft | 294 kts | 303° |
| 2026-05-04 10:09 | -11.88870 | 27.63503 | 11922 ft | 297 kts | 303° |
| 2026-05-04 10:09 | -11.87826 | 27.61669 | 11533 ft | 303 kts | 302° |
| 2026-05-04 10:10 | -11.86759 | 27.59788 | 11144 ft | 308 kts | 303° |
| 2026-05-04 10:10 | -11.85698 | 27.57915 | 10737 ft | 307 kts | 303° |
| 2026-05-04 10:10 | -11.84643 | 27.56049 | 10325 ft | 301 kts | 303° |
| 2026-05-04 10:10 | -11.83609 | 27.54223 | 10105 ft | 288 kts | 303° |
| 2026-05-04 10:11 | -11.82621 | 27.52479 | 9855 ft | 280 kts | 303° |
| 2026-05-04 10:11 | -11.81643 | 27.50755 | 9525 ft | 281 kts | 302° |
| 2026-05-04 10:11 | -11.80658 | 27.49016 | 9198 ft | 284 kts | 303° |
| 2026-05-04 10:11 | -11.79658 | 27.47249 | 8880 ft | 288 kts | 302° |
| 2026-05-04 10:12 | -11.78653 | 27.45476 | 8544 ft | 286 kts | 303° |
| 2026-05-04 10:12 | -11.77679 | 27.43757 | 8335 ft | 275 kts | 303° |
| 2026-05-04 10:12 | -11.76739 | 27.42098 | 8220 ft | 262 kts | 303° |
| 2026-05-04 10:12 | -11.75848 | 27.40526 | 8115 ft | 252 kts | 303° |
| 2026-05-04 10:13 | -11.74932 | 27.39035 | 7985 ft | 240 kts | 316° |
| 2026-05-04 10:13 | -11.73630 | 27.38136 | 7922 ft | 216 kts | 342° |
| 2026-05-04 10:13 | -11.72259 | 27.37779 | 7793 ft | 198 kts | 356° |
| 2026-05-04 10:13 | -11.70915 | 27.37564 | 7609 ft | 187 kts | 358° |
| 2026-05-04 10:14 | -11.69662 | 27.37373 | 7475 ft | 177 kts | 358° |
| 2026-05-04 10:14 | -11.68457 | 27.37185 | 7301 ft | 172 kts | 358° |
| 2026-05-04 10:16 | -11.63799 | 27.42106 | 5920 ft | 135 kts | 67° |
| 2026-05-04 10:16 | -11.63423 | 27.42971 | 5898 ft | 133 kts | 69° |
| 2026-05-04 10:16 | -11.63063 | 27.43831 | 6078 ft | 131 kts | 70° |
| 2026-05-04 10:16 | -11.62689 | 27.44718 | 5887 ft | 138 kts | 69° |
| 2026-05-04 10:17 | -11.62308 | 27.45617 | 5583 ft | 138 kts | 69° |
| 2026-05-04 10:17 | -11.61948 | 27.46475 | 5359 ft | 126 kts | 69° |
| 2026-05-04 10:19 | -11.59502 | 27.52202 | 4292 ft | 102 kts | 69° |
| 2026-05-04 10:19 | -11.59268 | 27.52758 | 4288 ft | 65 kts | 66° |
| 2026-05-04 10:19 | -11.59141 | 27.53045 | 4288 ft | 24 kts | 66° |
| 2026-05-04 10:19 | -11.59082 | 27.53144 | 4287 ft | 6 kts | 39° |
| 2026-05-04 10:20 | -11.59076 | 27.53147 | 4288 ft | 3 kts | 23° |
| 2026-05-04 10:20 | -11.59025 | 27.53126 | 4287 ft | 12 kts | 337° |
| 2026-05-04 10:20 | -11.58936 | 27.53093 | 4273 ft | 13 kts | 346° |
| 2026-05-04 10:20 | -11.58900 | 27.53086 | 4275 ft | 0 kts | 349° |